sensor_id;sensor_type;location;lat;lon;timestamp;pressure;altitude;pressure_sealevel;temperature;humidity
30967;BME280;17649;51.836;8.330;2023-04-20T00:00:25;101438.75;;;9.52;nan
30967;BME280;17649;51.836;8.330;2023-04-20T00:03:25;101428.66;;;9.46;nan
30967;BME280;17649;51.836;8.330;2023-04-20T00:06:26;101431.53;;;9.38;nan
30967;BME280;17649;51.836;8.330;2023-04-20T00:09:30;101426.00;;;9.47;nan
30967;BME280;17649;51.836;8.330;2023-04-20T00:12:31;101414.66;;;9.51;nan
30967;BME280;17649;51.836;8.330;2023-04-20T00:15:31;101409.41;;;9.54;nan
30967;BME280;17649;51.836;8.330;2023-04-20T00:18:32;101411.34;;;9.48;nan
30967;BME280;17649;51.836;8.330;2023-04-20T00:21:33;101403.22;;;9.35;nan
30967;BME280;17649;51.836;8.330;2023-04-20T00:24:33;101404.75;;;9.41;nan
30967;BME280;17649;51.836;8.330;2023-04-20T00:27:33;101401.78;;;9.50;nan
30967;BME280;17649;51.836;8.330;2023-04-20T00:30:34;101384.69;;;9.47;nan
30967;BME280;17649;51.836;8.330;2023-04-20T00:33:34;101382.81;;;9.51;nan
30967;BME280;17649;51.836;8.330;2023-04-20T00:36:35;101385.63;;;9.45;nan
30967;BME280;17649;51.836;8.330;2023-04-20T00:39:35;101390.31;;;9.35;nan
30967;BME280;17649;51.836;8.330;2023-04-20T00:42:36;101381.13;;;9.50;nan
30967;BME280;17649;51.836;8.330;2023-04-20T00:45:36;101372.00;;;9.63;nan
30967;BME280;17649;51.836;8.330;2023-04-20T00:48:36;101364.88;;;9.70;nan
30967;BME280;17649;51.836;8.330;2023-04-20T00:51:37;101357.34;;;9.64;nan
30967;BME280;17649;51.836;8.330;2023-04-20T00:54:37;101357.81;;;9.51;nan
30967;BME280;17649;51.836;8.330;2023-04-20T00:57:38;101360.88;;;9.61;nan
30967;BME280;17649;51.836;8.330;2023-04-20T01:00:39;101346.94;;;9.43;nan
30967;BME280;17649;51.836;8.330;2023-04-20T01:03:39;101349.41;;;9.46;nan
30967;BME280;17649;51.836;8.330;2023-04-20T01:06:40;101346.47;;;9.55;nan
30967;BME280;17649;51.836;8.330;2023-04-20T01:09:40;101329.41;;;9.51;nan
30967;BME280;17649;51.836;8.330;2023-04-20T01:12:42;101330.38;;;9.49;nan
30967;BME280;17649;51.836;8.330;2023-04-20T01:15:42;101332.22;;;9.45;nan
30967;BME280;17649;51.836;8.330;2023-04-20T01:18:44;101324.88;;;9.35;nan
30967;BME280;17649;51.836;8.330;2023-04-20T01:21:45;101323.28;;;9.54;nan
30967;BME280;17649;51.836;8.330;2023-04-20T01:24:46;101320.94;;;9.48;nan
30967;BME280;17649;51.836;8.330;2023-04-20T01:27:46;101319.84;;;9.32;nan
30967;BME280;17649;51.836;8.330;2023-04-20T01:30:47;101327.06;;;9.45;nan
30967;BME280;17649;51.836;8.330;2023-04-20T01:33:48;101319.56;;;9.39;nan
30967;BME280;17649;51.836;8.330;2023-04-20T01:36:48;101316.75;;;9.23;nan
30967;BME280;17649;51.836;8.330;2023-04-20T01:39:48;101323.41;;;9.29;nan
30967;BME280;17649;51.836;8.330;2023-04-20T01:42:49;101316.31;;;9.34;nan
30967;BME280;17649;51.836;8.330;2023-04-20T01:45:51;101316.63;;;9.26;nan
30967;BME280;17649;51.836;8.330;2023-04-20T01:48:52;101314.94;;;9.25;nan
30967;BME280;17649;51.836;8.330;2023-04-20T01:51:52;101316.91;;;9.19;nan
30967;BME280;17649;51.836;8.330;2023-04-20T01:54:53;101313.34;;;9.21;nan
30967;BME280;17649;51.836;8.330;2023-04-20T01:57:53;101322.50;;;9.07;nan
30967;BME280;17649;51.836;8.330;2023-04-20T02:00:53;101316.03;;;8.96;nan
30967;BME280;17649;51.836;8.330;2023-04-20T02:03:54;101319.84;;;8.86;nan
30967;BME280;17649;51.836;8.330;2023-04-20T02:06:54;101306.53;;;8.74;nan
30967;BME280;17649;51.836;8.330;2023-04-20T02:09:54;101304.53;;;8.82;nan
30967;BME280;17649;51.836;8.330;2023-04-20T02:12:55;101317.31;;;8.85;nan
30967;BME280;17649;51.836;8.330;2023-04-20T02:15:55;101313.13;;;8.82;nan
30967;BME280;17649;51.836;8.330;2023-04-20T02:18:56;101312.59;;;8.73;nan
30967;BME280;17649;51.836;8.330;2023-04-20T02:21:57;101308.75;;;8.84;nan
30967;BME280;17649;51.836;8.330;2023-04-20T02:24:57;101315.97;;;8.75;nan
30967;BME280;17649;51.836;8.330;2023-04-20T02:27:57;101311.75;;;8.72;nan
30967;BME280;17649;51.836;8.330;2023-04-20T02:30:58;101312.84;;;8.66;nan
30967;BME280;17649;51.836;8.330;2023-04-20T02:33:58;101308.84;;;8.58;nan
30967;BME280;17649;51.836;8.330;2023-04-20T02:36:58;101304.75;;;8.52;nan
30967;BME280;17649;51.836;8.330;2023-04-20T02:39:59;101299.84;;;8.45;nan
30967;BME280;17649;51.836;8.330;2023-04-20T02:42:59;101302.00;;;8.57;nan
30967;BME280;17649;51.836;8.330;2023-04-20T02:46:00;101297.63;;;8.59;nan
30967;BME280;17649;51.836;8.330;2023-04-20T02:49:00;101295.38;;;8.50;nan
30967;BME280;17649;51.836;8.330;2023-04-20T02:52:02;101293.34;;;8.33;nan
30967;BME280;17649;51.836;8.330;2023-04-20T02:55:03;101288.19;;;8.33;nan
30967;BME280;17649;51.836;8.330;2023-04-20T02:58:03;101285.56;;;8.36;nan
30967;BME280;17649;51.836;8.330;2023-04-20T03:01:03;101286.16;;;8.43;nan
30967;BME280;17649;51.836;8.330;2023-04-20T03:04:04;101289.19;;;8.29;nan
30967;BME280;17649;51.836;8.330;2023-04-20T03:07:06;101281.19;;;8.38;nan
30967;BME280;17649;51.836;8.330;2023-04-20T03:10:07;101277.59;;;8.42;nan
30967;BME280;17649;51.836;8.330;2023-04-20T03:13:07;101277.72;;;8.39;nan
30967;BME280;17649;51.836;8.330;2023-04-20T03:16:08;101268.84;;;8.21;nan
30967;BME280;17649;51.836;8.330;2023-04-20T03:19:08;101266.66;;;8.11;nan
30967;BME280;17649;51.836;8.330;2023-04-20T03:22:09;101272.22;;;7.98;nan
30967;BME280;17649;51.836;8.330;2023-04-20T03:25:09;101281.03;;;8.16;nan
30967;BME280;17649;51.836;8.330;2023-04-20T03:28:10;101270.84;;;8.13;nan
30967;BME280;17649;51.836;8.330;2023-04-20T03:31:11;101269.97;;;7.89;nan
30967;BME280;17649;51.836;8.330;2023-04-20T03:34:11;101272.94;;;8.02;nan
30967;BME280;17649;51.836;8.330;2023-04-20T03:37:12;101267.53;;;8.10;nan
30967;BME280;17649;51.836;8.330;2023-04-20T03:40:12;101269.34;;;8.07;nan
30967;BME280;17649;51.836;8.330;2023-04-20T03:43:13;101271.19;;;8.02;nan
30967;BME280;17649;51.836;8.330;2023-04-20T03:46:13;101266.34;;;8.20;nan
30967;BME280;17649;51.836;8.330;2023-04-20T03:49:13;101273.84;;;8.26;nan
30967;BME280;17649;51.836;8.330;2023-04-20T03:52:13;101266.34;;;8.18;nan
30967;BME280;17649;51.836;8.330;2023-04-20T03:55:14;101264.66;;;8.19;nan
30967;BME280;17649;51.836;8.330;2023-04-20T03:58:14;101262.03;;;8.20;nan
30967;BME280;17649;51.836;8.330;2023-04-20T04:01:15;101263.91;;;8.15;nan
30967;BME280;17649;51.836;8.330;2023-04-20T04:04:15;101257.41;;;8.05;nan
30967;BME280;17649;51.836;8.330;2023-04-20T04:07:16;101260.75;;;8.07;nan
30967;BME280;17649;51.836;8.330;2023-04-20T04:10:16;101257.84;;;8.16;nan
30967;BME280;17649;51.836;8.330;2023-04-20T04:13:18;101266.66;;;8.11;nan
30967;BME280;17649;51.836;8.330;2023-04-20T04:16:18;101269.53;;;8.01;nan
30967;BME280;17649;51.836;8.330;2023-04-20T04:19:18;101267.19;;;8.20;nan
30967;BME280;17649;51.836;8.330;2023-04-20T04:22:19;101273.28;;;7.93;nan
30967;BME280;17649;51.836;8.330;2023-04-20T04:25:19;101270.13;;;8.10;nan
30967;BME280;17649;51.836;8.330;2023-04-20T04:28:20;101263.41;;;8.05;nan
30967;BME280;17649;51.836;8.330;2023-04-20T04:31:20;101272.63;;;8.11;nan
30967;BME280;17649;51.836;8.330;2023-04-20T04:34:21;101268.78;;;7.98;nan
30967;BME280;17649;51.836;8.330;2023-04-20T04:37:23;101275.34;;;7.82;nan
30967;BME280;17649;51.836;8.330;2023-04-20T04:40:23;101272.19;;;7.73;nan
30967;BME280;17649;51.836;8.330;2023-04-20T04:43:23;101287.84;;;7.94;nan
30967;BME280;17649;51.836;8.330;2023-04-20T04:46:24;101286.41;;;7.85;nan
30967;BME280;17649;51.836;8.330;2023-04-20T04:49:26;101287.91;;;7.66;nan
30967;BME280;17649;51.836;8.330;2023-04-20T04:52:28;101298.84;;;7.72;nan
30967;BME280;17649;51.836;8.330;2023-04-20T04:55:28;101287.59;;;7.75;nan
30967;BME280;17649;51.836;8.330;2023-04-20T04:58:29;101294.69;;;7.68;nan
30967;BME280;17649;51.836;8.330;2023-04-20T05:01:30;101295.03;;;7.84;nan
30967;BME280;17649;51.836;8.330;2023-04-20T05:04:30;101298.81;;;7.99;nan
30967;BME280;17649;51.836;8.330;2023-04-20T05:07:30;101297.03;;;8.01;nan
30967;BME280;17649;51.836;8.330;2023-04-20T05:10:30;101295.06;;;8.09;nan
30967;BME280;17649;51.836;8.330;2023-04-20T05:13:31;101302.91;;;8.06;nan
30967;BME280;17649;51.836;8.330;2023-04-20T05:16:31;101300.31;;;8.06;nan
30967;BME280;17649;51.836;8.330;2023-04-20T05:19:31;101300.47;;;8.26;nan
30967;BME280;17649;51.836;8.330;2023-04-20T05:22:32;101306.34;;;8.30;nan
30967;BME280;17649;51.836;8.330;2023-04-20T05:25:33;101307.59;;;8.20;nan
30967;BME280;17649;51.836;8.330;2023-04-20T05:28:34;101309.47;;;8.15;nan
30967;BME280;17649;51.836;8.330;2023-04-20T05:31:34;101311.91;;;8.19;nan
30967;BME280;17649;51.836;8.330;2023-04-20T05:34:35;101314.63;;;8.15;nan
30967;BME280;17649;51.836;8.330;2023-04-20T05:37:35;101310.69;;;8.04;nan
30967;BME280;17649;51.836;8.330;2023-04-20T05:40:35;101307.66;;;8.17;nan
30967;BME280;17649;51.836;8.330;2023-04-20T05:43:36;101303.47;;;8.14;nan
30967;BME280;17649;51.836;8.330;2023-04-20T05:46:36;101311.94;;;8.18;nan
30967;BME280;17649;51.836;8.330;2023-04-20T05:49:37;101310.94;;;8.22;nan
30967;BME280;17649;51.836;8.330;2023-04-20T05:52:37;101313.47;;;8.23;nan
30967;BME280;17649;51.836;8.330;2023-04-20T05:55:38;101310.56;;;8.34;nan
30967;BME280;17649;51.836;8.330;2023-04-20T05:58:38;101312.13;;;8.38;nan
30967;BME280;17649;51.836;8.330;2023-04-20T06:01:39;101308.34;;;8.48;nan
30967;BME280;17649;51.836;8.330;2023-04-20T06:04:39;101309.38;;;8.43;nan
30967;BME280;17649;51.836;8.330;2023-04-20T06:07:41;101312.50;;;8.52;nan
30967;BME280;17649;51.836;8.330;2023-04-20T06:10:41;101307.47;;;8.48;nan
30967;BME280;17649;51.836;8.330;2023-04-20T06:13:42;101312.25;;;8.33;nan
30967;BME280;17649;51.836;8.330;2023-04-20T06:16:42;101301.44;;;8.49;nan
30967;BME280;17649;51.836;8.330;2023-04-20T06:19:42;101287.91;;;8.42;nan
30967;BME280;17649;51.836;8.330;2023-04-20T06:22:43;101290.41;;;8.69;nan
30967;BME280;17649;51.836;8.330;2023-04-20T06:25:44;101280.88;;;8.71;nan
30967;BME280;17649;51.836;8.330;2023-04-20T06:28:44;101269.13;;;8.85;nan
30967;BME280;17649;51.836;8.330;2023-04-20T06:31:46;101277.44;;;8.93;nan
30967;BME280;17649;51.836;8.330;2023-04-20T06:34:46;101276.41;;;9.19;nan
30967;BME280;17649;51.836;8.330;2023-04-20T06:37:46;101269.13;;;9.09;nan
30967;BME280;17649;51.836;8.330;2023-04-20T06:40:47;101277.63;;;9.33;nan
30967;BME280;17649;51.836;8.330;2023-04-20T06:43:47;101282.66;;;9.14;nan
30967;BME280;17649;51.836;8.330;2023-04-20T06:46:47;101280.94;;;8.91;nan
30967;BME280;17649;51.836;8.330;2023-04-20T06:49:48;101278.28;;;8.94;nan
30967;BME280;17649;51.836;8.330;2023-04-20T06:52:48;101279.38;;;9.10;nan
30967;BME280;17649;51.836;8.330;2023-04-20T06:55:49;101279.38;;;9.10;nan
30967;BME280;17649;51.836;8.330;2023-04-20T06:58:49;101285.75;;;9.23;nan
30967;BME280;17649;51.836;8.330;2023-04-20T07:01:50;101275.50;;;9.20;nan
30967;BME280;17649;51.836;8.330;2023-04-20T07:04:50;101281.00;;;9.13;nan
30967;BME280;17649;51.836;8.330;2023-04-20T07:07:50;101275.09;;;9.31;nan
30967;BME280;17649;51.836;8.330;2023-04-20T07:10:51;101272.84;;;9.23;nan
30967;BME280;17649;51.836;8.330;2023-04-20T07:13:51;101265.84;;;9.04;nan
30967;BME280;17649;51.836;8.330;2023-04-20T07:16:52;101271.72;;;9.07;nan
30967;BME280;17649;51.836;8.330;2023-04-20T07:19:52;101271.31;;;9.18;nan
30967;BME280;17649;51.836;8.330;2023-04-20T07:22:53;101270.41;;;9.19;nan
30967;BME280;17649;51.836;8.330;2023-04-20T07:25:53;101265.13;;;9.00;nan
30967;BME280;17649;51.836;8.330;2023-04-20T07:28:53;101265.69;;;9.08;nan
30967;BME280;17649;51.836;8.330;2023-04-20T07:31:54;101264.41;;;8.96;nan
30967;BME280;17649;51.836;8.330;2023-04-20T07:34:54;101262.47;;;8.80;nan
30967;BME280;17649;51.836;8.330;2023-04-20T07:37:54;101266.47;;;9.10;nan
30967;BME280;17649;51.836;8.330;2023-04-20T07:40:55;101271.22;;;9.43;nan
30967;BME280;17649;51.836;8.330;2023-04-20T07:43:55;101278.09;;;9.20;nan
30967;BME280;17649;51.836;8.330;2023-04-20T07:46:55;101272.13;;;9.62;nan
30967;BME280;17649;51.836;8.330;2023-04-20T07:49:56;101281.00;;;9.77;nan
30967;BME280;17649;51.836;8.330;2023-04-20T07:52:57;101270.94;;;9.49;nan
30967;BME280;17649;51.836;8.330;2023-04-20T07:55:57;101272.75;;;9.69;nan
30967;BME280;17649;51.836;8.330;2023-04-20T07:58:57;101277.72;;;9.94;nan
30967;BME280;17649;51.836;8.330;2023-04-20T08:01:59;101258.88;;;10.12;nan
30967;BME280;17649;51.836;8.330;2023-04-20T08:05:01;101264.47;;;10.42;nan
30967;BME280;17649;51.836;8.330;2023-04-20T08:08:02;101262.22;;;10.34;nan
30967;BME280;17649;51.836;8.330;2023-04-20T08:11:02;101259.25;;;10.03;nan
30967;BME280;17649;51.836;8.330;2023-04-20T08:14:03;101268.16;;;9.96;nan
30967;BME280;17649;51.836;8.330;2023-04-20T08:17:03;101265.78;;;9.91;nan
30967;BME280;17649;51.836;8.330;2023-04-20T08:20:04;101265.06;;;9.88;nan
30967;BME280;17649;51.836;8.330;2023-04-20T08:23:05;101279.13;;;9.80;nan
30967;BME280;17649;51.836;8.330;2023-04-20T08:26:05;101282.13;;;9.92;nan
30967;BME280;17649;51.836;8.330;2023-04-20T08:29:05;101279.03;;;9.83;nan
30967;BME280;17649;51.836;8.330;2023-04-20T08:32:06;101282.34;;;9.65;nan
30967;BME280;17649;51.836;8.330;2023-04-20T08:35:11;101279.88;;;9.62;nan
30967;BME280;17649;51.836;8.330;2023-04-20T08:38:12;101275.69;;;9.60;nan
30967;BME280;17649;51.836;8.330;2023-04-20T08:41:13;101283.38;;;9.61;nan
30967;BME280;17649;51.836;8.330;2023-04-20T08:44:14;101286.59;;;9.66;nan
30967;BME280;17649;51.836;8.330;2023-04-20T08:47:14;101267.78;;;10.05;nan
30967;BME280;17649;51.836;8.330;2023-04-20T08:50:15;101278.94;;;10.27;nan
30967;BME280;17649;51.836;8.330;2023-04-20T08:53:15;101271.69;;;10.54;nan
30967;BME280;17649;51.836;8.330;2023-04-20T08:56:16;101266.03;;;10.65;nan
30967;BME280;17649;51.836;8.330;2023-04-20T08:59:16;101276.88;;;10.73;nan
30967;BME280;17649;51.836;8.330;2023-04-20T09:02:16;101280.38;;;11.10;nan
30967;BME280;17649;51.836;8.330;2023-04-20T09:05:28;101280.38;;;11.10;nan
30967;BME280;17649;51.836;8.330;2023-04-20T09:08:36;101271.06;;;11.05;nan
30967;BME280;17649;51.836;8.330;2023-04-20T09:11:37;101267.34;;;11.47;nan
30967;BME280;17649;51.836;8.330;2023-04-20T09:14:45;101276.34;;;11.57;nan
30967;BME280;17649;51.836;8.330;2023-04-20T09:17:46;101267.88;;;11.71;nan
30967;BME280;17649;51.836;8.330;2023-04-20T09:20:46;101263.97;;;11.45;nan
30967;BME280;17649;51.836;8.330;2023-04-20T09:23:58;101264.19;;;11.94;nan
30967;BME280;17649;51.836;8.330;2023-04-20T09:26:59;101267.59;;;12.12;nan
30967;BME280;17649;51.836;8.330;2023-04-20T09:30:03;101267.84;;;11.90;nan
30967;BME280;17649;51.836;8.330;2023-04-20T09:33:04;101278.75;;;11.97;nan
30967;BME280;17649;51.836;8.330;2023-04-20T09:36:07;101276.34;;;11.57;nan
30967;BME280;17649;51.836;8.330;2023-04-20T09:39:15;101271.09;;;11.59;nan
30967;BME280;17649;51.836;8.330;2023-04-20T09:42:16;101282.50;;;11.01;nan
30967;BME280;17649;51.836;8.330;2023-04-20T09:45:16;101268.13;;;10.94;nan
30967;BME280;17649;51.836;8.330;2023-04-20T09:48:17;101274.91;;;10.97;nan
30967;BME280;17649;51.836;8.330;2023-04-20T09:51:20;101277.13;;;11.23;nan
30967;BME280;17649;51.836;8.330;2023-04-20T09:54:21;101276.13;;;11.26;nan
30967;BME280;17649;51.836;8.330;2023-04-20T09:57:22;101277.44;;;10.98;nan
30967;BME280;17649;51.836;8.330;2023-04-20T10:00:22;101279.69;;;10.87;nan
30967;BME280;17649;51.836;8.330;2023-04-20T10:03:22;101283.19;;;10.86;nan
30967;BME280;17649;51.836;8.330;2023-04-20T10:06:32;101284.97;;;11.58;nan
30967;BME280;17649;51.836;8.330;2023-04-20T10:09:33;101274.56;;;11.94;nan
30967;BME280;17649;51.836;8.330;2023-04-20T10:15:46;101272.91;;;11.74;nan
30967;BME280;17649;51.836;8.330;2023-04-20T10:19:01;101285.09;;;11.91;nan
30967;BME280;17649;51.836;8.330;2023-04-20T10:22:02;101278.72;;;12.31;nan
30967;BME280;17649;51.836;8.330;2023-04-20T10:25:14;101280.78;;;12.24;nan
30967;BME280;17649;51.836;8.330;2023-04-20T10:28:16;101277.88;;;12.31;nan
30967;BME280;17649;51.836;8.330;2023-04-20T10:31:16;101277.09;;;12.62;nan
30967;BME280;17649;51.836;8.330;2023-04-20T10:34:28;101272.28;;;12.87;nan
30967;BME280;17649;51.836;8.330;2023-04-20T10:37:28;101271.25;;;12.90;nan
30967;BME280;17649;51.836;8.330;2023-04-20T10:40:29;101270.03;;;12.48;nan
30967;BME280;17649;51.836;8.330;2023-04-20T10:43:29;101262.13;;;13.14;nan
30967;BME280;17649;51.836;8.330;2023-04-20T10:46:30;101265.47;;;13.48;nan
30967;BME280;17649;51.836;8.330;2023-04-20T10:49:30;101253.50;;;14.62;nan
30967;BME280;17649;51.836;8.330;2023-04-20T10:52:35;101248.69;;;14.83;nan
30967;BME280;17649;51.836;8.330;2023-04-20T10:55:35;101245.38;;;14.52;nan
30967;BME280;17649;51.836;8.330;2023-04-20T10:58:36;101247.03;;;14.82;nan
30967;BME280;17649;51.836;8.330;2023-04-20T11:01:36;101246.13;;;15.10;nan
30967;BME280;17649;51.836;8.330;2023-04-20T11:04:37;101250.84;;;14.19;nan
30967;BME280;17649;51.836;8.330;2023-04-20T11:07:46;101246.56;;;14.04;nan
30967;BME280;17649;51.836;8.330;2023-04-20T11:10:46;101247.66;;;13.86;nan
30967;BME280;17649;51.836;8.330;2023-04-20T11:13:47;101244.91;;;15.01;nan
30967;BME280;17649;51.836;8.330;2023-04-20T11:16:51;101242.03;;;15.72;nan
30967;BME280;17649;51.836;8.330;2023-04-20T11:20:03;101230.13;;;15.29;nan
30967;BME280;17649;51.836;8.330;2023-04-20T11:23:05;101227.41;;;15.30;nan
30967;BME280;17649;51.836;8.330;2023-04-20T11:26:05;101217.75;;;15.85;nan
30967;BME280;17649;51.836;8.330;2023-04-20T11:29:06;101214.44;;;17.53;nan
30967;BME280;17649;51.836;8.330;2023-04-20T11:32:10;101214.28;;;18.90;nan
30967;BME280;17649;51.836;8.330;2023-04-20T11:35:10;101211.84;;;18.66;nan
30967;BME280;17649;51.836;8.330;2023-04-20T11:38:11;101212.72;;;17.41;nan
30967;BME280;17649;51.836;8.330;2023-04-20T11:41:11;101216.88;;;16.35;nan
30967;BME280;17649;51.836;8.330;2023-04-20T11:44:12;101222.53;;;15.65;nan
30967;BME280;17649;51.836;8.330;2023-04-20T11:47:14;101229.41;;;14.85;nan
30967;BME280;17649;51.836;8.330;2023-04-20T11:50:15;101224.28;;;14.28;nan
30967;BME280;17649;51.836;8.330;2023-04-20T11:53:16;101215.69;;;13.98;nan
30967;BME280;17649;51.836;8.330;2023-04-20T11:56:17;101209.31;;;14.32;nan
30967;BME280;17649;51.836;8.330;2023-04-20T11:59:17;101210.88;;;14.63;nan
30967;BME280;17649;51.836;8.330;2023-04-20T12:02:18;101205.84;;;14.74;nan
30967;BME280;17649;51.836;8.330;2023-04-20T12:05:19;101200.75;;;14.85;nan
30967;BME280;17649;51.836;8.330;2023-04-20T12:08:19;101210.16;;;14.61;nan
30967;BME280;17649;51.836;8.330;2023-04-20T12:11:20;101205.28;;;16.39;nan
30967;BME280;17649;51.836;8.330;2023-04-20T12:14:21;101210.09;;;17.29;nan
30967;BME280;17649;51.836;8.330;2023-04-20T12:17:21;101214.53;;;15.94;nan
30967;BME280;17649;51.836;8.330;2023-04-20T12:20:21;101198.06;;;16.79;nan
30967;BME280;17649;51.836;8.330;2023-04-20T12:23:22;101201.69;;;15.78;nan
30967;BME280;17649;51.836;8.330;2023-04-20T12:26:22;101205.19;;;14.71;nan
30967;BME280;17649;51.836;8.330;2023-04-20T12:29:22;101201.53;;;14.46;nan
30967;BME280;17649;51.836;8.330;2023-04-20T12:32:22;101194.63;;;14.02;nan
30967;BME280;17649;51.836;8.330;2023-04-20T12:35:23;101189.81;;;13.52;nan
30967;BME280;17649;51.836;8.330;2023-04-20T12:38:23;101188.84;;;13.83;nan
30967;BME280;17649;51.836;8.330;2023-04-20T12:41:23;101179.84;;;14.46;nan
30967;BME280;17649;51.836;8.330;2023-04-20T12:44:24;101182.16;;;14.91;nan
30967;BME280;17649;51.836;8.330;2023-04-20T12:47:24;101164.78;;;15.57;nan
30967;BME280;17649;51.836;8.330;2023-04-20T12:50:25;101170.88;;;17.41;nan
30967;BME280;17649;51.836;8.330;2023-04-20T12:53:25;101172.78;;;18.95;nan
30967;BME280;17649;51.836;8.330;2023-04-20T12:56:26;101172.88;;;18.39;nan
30967;BME280;17649;51.836;8.330;2023-04-20T12:59:26;101172.91;;;17.02;nan
30967;BME280;17649;51.836;8.330;2023-04-20T13:02:26;101171.22;;;17.01;nan
30967;BME280;17649;51.836;8.330;2023-04-20T13:05:27;101165.66;;;18.21;nan
30967;BME280;17649;51.836;8.330;2023-04-20T13:08:27;101170.78;;;17.53;nan
30967;BME280;17649;51.836;8.330;2023-04-20T13:11:28;101159.56;;;16.70;nan
30967;BME280;17649;51.836;8.330;2023-04-20T13:14:30;101159.78;;;16.05;nan
30967;BME280;17649;51.836;8.330;2023-04-20T13:17:30;101162.03;;;15.46;nan
30967;BME280;17649;51.836;8.330;2023-04-20T13:20:31;101172.63;;;15.17;nan
30967;BME280;17649;51.836;8.330;2023-04-20T13:23:31;101163.59;;;15.63;nan
30967;BME280;17649;51.836;8.330;2023-04-20T13:26:32;101171.75;;;15.44;nan
30967;BME280;17649;51.836;8.330;2023-04-20T13:29:32;101156.13;;;15.57;nan
30967;BME280;17649;51.836;8.330;2023-04-20T13:32:32;101169.34;;;15.41;nan
30967;BME280;17649;51.836;8.330;2023-04-20T13:35:33;101168.22;;;15.58;nan
30967;BME280;17649;51.836;8.330;2023-04-20T13:38:33;101156.19;;;15.42;nan
30967;BME280;17649;51.836;8.330;2023-04-20T13:41:34;101159.94;;;15.78;nan
30967;BME280;17649;51.836;8.330;2023-04-20T13:44:34;101164.22;;;17.37;nan
30967;BME280;17649;51.836;8.330;2023-04-20T13:47:37;101152.81;;;18.06;nan
30967;BME280;17649;51.836;8.330;2023-04-20T13:50:37;101156.97;;;17.40;nan
30967;BME280;17649;51.836;8.330;2023-04-20T13:53:38;101149.22;;;16.68;nan
30967;BME280;17649;51.836;8.330;2023-04-20T13:56:38;101140.00;;;16.63;nan
30967;BME280;17649;51.836;8.330;2023-04-20T13:59:38;101134.13;;;18.76;nan
30967;BME280;17649;51.836;8.330;2023-04-20T14:02:39;101127.31;;;20.39;nan
30967;BME280;17649;51.836;8.330;2023-04-20T14:05:39;101124.31;;;20.53;nan
30967;BME280;17649;51.836;8.330;2023-04-20T14:08:40;101121.88;;;19.40;nan
30967;BME280;17649;51.836;8.330;2023-04-20T14:11:41;101119.47;;;18.20;nan
30967;BME280;17649;51.836;8.330;2023-04-20T14:14:42;101107.34;;;18.62;nan
30967;BME280;17649;51.836;8.330;2023-04-20T14:17:43;101107.75;;;17.34;nan
30967;BME280;17649;51.836;8.330;2023-04-20T14:20:43;101105.53;;;17.63;nan
30967;BME280;17649;51.836;8.330;2023-04-20T14:23:44;101106.41;;;17.86;nan
30967;BME280;17649;51.836;8.330;2023-04-20T14:26:44;101104.75;;;16.45;nan
30967;BME280;17649;51.836;8.330;2023-04-20T14:29:44;101102.59;;;15.51;nan
30967;BME280;17649;51.836;8.330;2023-04-20T14:32:58;101106.06;;;14.99;nan
30967;BME280;17649;51.836;8.330;2023-04-20T14:36:01;101105.63;;;14.80;nan
30967;BME280;17649;51.836;8.330;2023-04-20T14:39:01;101091.72;;;15.32;nan
30967;BME280;17649;51.836;8.330;2023-04-20T14:42:02;101090.91;;;16.07;nan
30967;BME280;17649;51.836;8.330;2023-04-20T14:45:02;101089.78;;;16.83;nan
30967;BME280;17649;51.836;8.330;2023-04-20T14:48:03;101092.44;;;16.10;nan
30967;BME280;17649;51.836;8.330;2023-04-20T14:51:04;101105.50;;;15.46;nan
30967;BME280;17649;51.836;8.330;2023-04-20T14:54:04;101110.78;;;14.67;nan
30967;BME280;17649;51.836;8.330;2023-04-20T14:57:05;101107.44;;;13.95;nan
30967;BME280;17649;51.836;8.330;2023-04-20T15:00:06;101104.06;;;13.36;nan
30967;BME280;17649;51.836;8.330;2023-04-20T15:03:06;101110.66;;;12.98;nan
30967;BME280;17649;51.836;8.330;2023-04-20T15:06:07;101103.88;;;12.79;nan
30967;BME280;17649;51.836;8.330;2023-04-20T15:09:08;101095.09;;;13.12;nan
30967;BME280;17649;51.836;8.330;2023-04-20T15:12:08;101110.56;;;13.29;nan
30967;BME280;17649;51.836;8.330;2023-04-20T15:15:09;101107.06;;;13.45;nan
30967;BME280;17649;51.836;8.330;2023-04-20T15:18:09;101110.84;;;13.39;nan
30967;BME280;17649;51.836;8.330;2023-04-20T15:21:10;101102.00;;;13.57;nan
30967;BME280;17649;51.836;8.330;2023-04-20T15:24:10;101096.59;;;13.75;nan
30967;BME280;17649;51.836;8.330;2023-04-20T15:27:11;101089.09;;;13.70;nan
30967;BME280;17649;51.836;8.330;2023-04-20T15:30:11;101092.03;;;13.50;nan
30967;BME280;17649;51.836;8.330;2023-04-20T15:33:12;101089.81;;;12.83;nan
30967;BME280;17649;51.836;8.330;2023-04-20T15:36:13;101089.81;;;12.83;nan
30967;BME280;17649;51.836;8.330;2023-04-20T15:39:13;101100.16;;;12.99;nan
30967;BME280;17649;51.836;8.330;2023-04-20T15:42:14;101100.75;;;12.59;nan
30967;BME280;17649;51.836;8.330;2023-04-20T15:45:14;101095.66;;;12.41;nan
30967;BME280;17649;51.836;8.330;2023-04-20T15:48:16;101094.16;;;12.53;nan
30967;BME280;17649;51.836;8.330;2023-04-20T15:51:17;101093.78;;;12.59;nan
30967;BME280;17649;51.836;8.330;2023-04-20T15:54:19;101098.50;;;12.37;nan
30967;BME280;17649;51.836;8.330;2023-04-20T15:57:22;101090.78;;;12.19;nan
30967;BME280;17649;51.836;8.330;2023-04-20T16:00:23;101086.38;;;12.06;nan
30967;BME280;17649;51.836;8.330;2023-04-20T16:03:24;101093.97;;;11.93;nan
30967;BME280;17649;51.836;8.330;2023-04-20T16:06:24;101090.53;;;12.08;nan
30967;BME280;17649;51.836;8.330;2023-04-20T16:09:25;101093.03;;;11.94;nan
30967;BME280;17649;51.836;8.330;2023-04-20T16:12:25;101088.69;;;11.94;nan
30967;BME280;17649;51.836;8.330;2023-04-20T16:15:26;101093.97;;;11.76;nan
30967;BME280;17649;51.836;8.330;2023-04-20T16:18:26;101097.72;;;11.70;nan
30967;BME280;17649;51.836;8.330;2023-04-20T16:21:27;101096.88;;;11.70;nan